Historyczne dane pomiarowe

Dodano dane terminowe – wersja testowa.

Dane z okresu 1951-2019

Wersja bazy: 1.34 [2019-03-16, lista zmian], aktualizacja planowana na 2019-04-15

Dane meteo z obszaru Polski uzyskane na podstawie danych udostępnionych przez Instytut Meteorologii i Gospodarki Wodnej – Państwowy Instytut Badawczy.

 

Wybierz Datę:    

       

TemperaturaWilgotnośćWiatrCiśnienieOpadyŚniegCzas trwania zjawisk
 Stacja t tx tn tng RH VA  wxwx mslp ppp RRR   cm mm wxwxwxwxwxwxwx
1961-08-14 14.1 20.2 7.2- 81.0- 4.0 1.3---- 0.0------------
1961-08-13 13.7 17.6 11.7- 80.3- 5.3 2.0---- 0.0------------
1961-08-12 17.2 20.7 14.1- 85.5- 8.0 0.7---- 0.0------------
1961-08-11 17.7 23.9 17.0- 98.5- 5.3 0.3---- 24.2------------
1961-08-10 23.2 28.6 18.0- 75.3- 4.3 1.7---- 0.0------------
1961-08-09 21.4 26.0 14.9- 80.0- 5.3 0.7---- 0.7------------
1961-08-08 19.5 23.6 9.4- 72.5- 3.3 1.3---- 0.0------------
1961-08-07 18.6 23.0 17.1- 85.8- 7.0 0.7---- 3.4------------
1961-08-06 24.3 31.3 13.9- 64.0- 2.0 2.7---- 2.1------------
1961-08-05 19.3 24.6 14.0- 80.5- 3.3 2.3---- 0.0------------
1961-08-04 15.3 19.0 7.4- 82.0- 8.0 2.0---- 0.1------------
1961-08-03 14.2 19.4 11.0- 85.5- 4.0 1.3---- 2.1------------
1961-08-02 17.2 24.8 9.4- 84.5- 5.3 0.0---- 6.1------------
1961-08-01 14.9 20.9 11.6- 77.0- 4.0 3.3---- 0.0------------
1961-07-31 13.4 14.3 12.7- 95.0- 8.0 3.7---- 46.5------------
1961-07-30 14.2 17.7 8.0- 88.5- 8.0 0.7---- 0.4------------
1961-07-29 13.7 18.6 12.3- 86.5- 5.7 3.0---- 4.6------------
1961-07-28 14.7 19.3 13.0- 95.3- 8.0 1.3---- 12.2------------
1961-07-27 19.1 25.6 12.9- 78.0- 6.0 2.3---- 1.6------------
1961-07-26 17.9 25.0 9.6- 67.0- 6.3 3.3---- 0.0------------
1961-07-25 13.6 17.5 11.7- 80.3- 6.3 2.0---- 0.0------------
1961-07-24 13.9 16.4 11.3- 76.0- 8.0 3.3---- 0.0------------
1961-07-23 14.4 16.8 11.5- 89.8- 7.7 2.7---- 0.0------------
1961-07-22 15.2 19.5 13.6- 83.5- 8.0 3.0---- 2.8------------
1961-07-21 14.6 16.6 12.2- 88.3- 8.0 3.0---- 0.2------------
1961-07-20 15.7 21.8 9.2- 84.8- 7.0 2.3---- 1.6------------
1961-07-19 14.5 19.2 10.5- 90.8- 6.3 1.0---- 6.8------------
1961-07-18 14.2 20.4 11.6- 87.8- 5.3 1.7---- 0.2------------
1961-07-17 14.0 20.1 9.7- 85.5- 6.7 3.0---- 10.4------------
1961-07-16 15.7 23.3 13.5- 86.0- 7.0 0.7---- 3.4------------
1961-07-15 18.5 24.4 12.6- 73.5- 5.7 1.7---- 14.1------------
1961-07-14 14.5 20.5 11.7- 68.3- 5.0 2.3---- 0.2------------
1961-07-13 19.3 27.0 13.2- 77.0- 5.0 2.3---- 5.9------------
1961-07-12 21.5 27.4 13.3- 71.3- 3.7 1.7---- 0.0------------
1961-07-11 16.5 21.8 7.1- 78.0- 6.3 1.3---- 1.7------------
1961-07-10 12.8 18.2 9.4- 81.0- 6.0 2.0---- 0.9------------
1961-07-09 13.5 18.8 9.2- 86.5- 6.7 2.3---- 6.1------------
1961-07-08 15.5 22.6 6.1- 69.5- 5.3 1.7---- 0.0------------
1961-07-07 12.4 16.2 8.4- 77.3- 3.3 2.7---- 0.0------------
1961-07-06 11.9 15.9 7.8- 84.3- 4.3 2.3---- 4.8------------
1961-07-05 12.5 17.2 10.2- 74.3- 5.7 4.7---- 0.1------------
1961-07-04 18.0 27.6 14.1- 84.0- 5.3 2.0---- 0.3------------
1961-07-03 25.7 31.1 13.2- 54.5- 3.0 2.0---- 0.0------------
1961-07-02 22.8 30.1 11.7- 66.0- 0.0 0.0---- 0.0------------
1961-07-01 21.6 28.1 12.0- 57.8- 0.7 0.7---- 0.0------------
1961-06-30 19.7 26.4 10.9- 68.5- 0.0 0.3---- 0.0------------
1961-06-29 17.2 21.7 8.8- 71.8- 2.7 1.7---- 0.0------------
1961-06-28 14.2 19.8 12.7- 70.0- 4.3 2.7---- 0.0------------
1961-06-27 21.8 27.8 16.4- 81.3- 4.3 1.3---- 1.7------------
1961-06-26 22.0 28.2 14.0- 72.3- 3.3 0.3---- 0.0------------
1961-06-25 21.3 28.3 11.4- 68.8- 1.3 1.0---- 0.0------------
1961-06-24 19.0 23.7 11.3- 75.8- 1.7 1.3---- 0.0------------
1961-06-23 17.6 21.6 15.0- 83.5- 4.0 1.7---- 0.0------------
1961-06-22 18.2 23.6 5.5- 73.0- 5.0 2.3---- 16.5------------
1961-06-21 15.8 22.9 6.8- 73.0- 2.0 1.0---- 0.0------------
1961-06-20 13.9 21.0 8.9- 70.3- 1.0 2.7---- 0.0------------
1961-06-19 16.3 22.8 14.2- 71.5- 3.3 1.3---- 0.7------------
1961-06-18 20.5 26.1 11.1- 70.3- 1.3 1.7---- 0.1------------
1961-06-17 17.3 23.1 7.2- 72.8- 4.7 1.7---- 0.0------------
1961-06-16 13.3 19.8 7.5- 78.3- 4.7 2.3---- 0.0------------
250.7 ms

 

Źródłem pochodzenia danych jest Instytut Meteorologii i Gospodarki Wodnej – Państwowy Instytut Badawczy. Dane Instytutu Meteorologii i Gospodarki Wodnej – Państwowego Instytutu Badawczego zostały przetworzone.

Dane źródłowe można odnaleźć na stronie https://dane.imgw.pl